Steamboat Springs, CO (80477)

4:27 PM MST on December 21, 2014 (GMT -0700)
Conifer Circle | Change Station
CLOSE
Current Station
Personal Weather Station
Location: Steamboat Springs, CO
Elevation: 6841 ft
Nearby Weather Stations

Elev 6841 ft 40.49 °N, 106.82 °W | Updated 6 seconds ago

Overcast
Overcast
34.7 °F
Feels Like 35 °F
N
0.0
Wind Variable Wind from WSW
Gusts 0.0 mph

Today
High -- | Low -- °F
--% Chance of Precip.
Yesterday
High -- | Low -- °F
Precip. -- in
7:27 AM 4:43 PM
Waning Crescent, 0% visible
Pressure 29.72 in
Visibility 7.0 miles
Clouds Overcast 2200 ft
Windchill 35 °F
Dew Point 30 °F
Humidity 83%
Rainfall 0.00 in
Snow Depth Not available.
UV 0 out of 12
Pollen .10 out of 12
Air Quality Not available.
Flu Activity Not available.
METAR KSBS 212315Z AUTO 29010KT 7SM OVC022 01/M01 A2972 RMK AO1 T00111007

More Conditions Fewer Conditions

Pressure 29.72 in
Visibility 7.0 miles
Clouds Overcast 2200 ft
Windchill 35 °F
Dew Point 30 °F
Humidity 83%
Rainfall 0.00 in
Snow Depth Not available.
UV 0 out of 12
Pollen .10 out of 12
Air Quality Not available.
Flu Activity Not available.
METAR KSBS 212315Z AUTO 29010KT 7SM OVC022 01/M01 A2972 RMK AO1 T00111007

More Conditions Fewer Conditions

10-Day Weather Forecast

Almanac

Astronomy

Dec. 21, 2014 Rise Set
Actual Time
Civil Twilight
Nautical Twilight
Astronomical Twilight
Moon
Length of Visible Light
Length of Day
Tomorrow will be .
, % of the Moon is Illuminated

Today's Extremes

State Highs State Lows

Community

WunderPhotos

Upload Photos

1,779,502 photos uploaded!

WunderBlogs® & News

Nearby

Air Quality

  Air Quality AQ Index Pollutant
Not available.

Snow Depth

Station Depth Elevation

Earthquake Activity

City Distance Mag. Time & Date
Minimum magnitude displayed is 2.5.

Coastal Water Temperatures

Place Temperature

Nearby Weather Stations